sensor_id;sensor_type;location;lat;lon;timestamp;P1;durP1;ratioP1;P2;durP2;ratioP2
15096;SDS011;7649;52.084;7.478;2023-12-20T00:01:51;10.50;;;4.67;;
15096;SDS011;7649;52.084;7.478;2023-12-20T00:04:21;8.50;;;4.83;;
15096;SDS011;7649;52.084;7.478;2023-12-20T00:06:50;11.90;;;4.80;;
15096;SDS011;7649;52.084;7.478;2023-12-20T00:09:18;9.17;;;4.10;;
15096;SDS011;7649;52.084;7.478;2023-12-20T00:11:47;8.33;;;4.90;;
15096;SDS011;7649;52.084;7.478;2023-12-20T00:14:16;11.07;;;4.40;;
15096;SDS011;7649;52.084;7.478;2023-12-20T00:16:44;10.23;;;4.73;;
15096;SDS011;7649;52.084;7.478;2023-12-20T00:19:12;7.03;;;4.40;;
15096;SDS011;7649;52.084;7.478;2023-12-20T00:21:43;12.63;;;4.43;;
15096;SDS011;7649;52.084;7.478;2023-12-20T00:24:11;9.80;;;4.83;;
15096;SDS011;7649;52.084;7.478;2023-12-20T00:26:39;9.70;;;4.30;;
15096;SDS011;7649;52.084;7.478;2023-12-20T00:29:08;8.70;;;3.87;;
15096;SDS011;7649;52.084;7.478;2023-12-20T00:31:37;7.83;;;3.80;;
15096;SDS011;7649;52.084;7.478;2023-12-20T00:34:05;8.77;;;3.70;;
15096;SDS011;7649;52.084;7.478;2023-12-20T00:36:34;11.03;;;3.60;;
15096;SDS011;7649;52.084;7.478;2023-12-20T00:39:04;8.87;;;3.50;;
15096;SDS011;7649;52.084;7.478;2023-12-20T00:41:33;6.37;;;3.60;;
15096;SDS011;7649;52.084;7.478;2023-12-20T00:44:01;10.60;;;3.63;;
15096;SDS011;7649;52.084;7.478;2023-12-20T00:46:30;11.87;;;3.67;;
15096;SDS011;7649;52.084;7.478;2023-12-20T00:48:58;10.37;;;3.30;;
15096;SDS011;7649;52.084;7.478;2023-12-20T00:51:27;9.13;;;3.10;;
15096;SDS011;7649;52.084;7.478;2023-12-20T00:53:55;11.13;;;3.23;;
15096;SDS011;7649;52.084;7.478;2023-12-20T00:56:25;12.33;;;3.70;;
15096;SDS011;7649;52.084;7.478;2023-12-20T00:58:53;12.33;;;3.03;;
15096;SDS011;7649;52.084;7.478;2023-12-20T01:01:21;9.80;;;4.00;;
15096;SDS011;7649;52.084;7.478;2023-12-20T01:03:50;9.20;;;3.90;;
15096;SDS011;7649;52.084;7.478;2023-12-20T01:06:19;10.50;;;3.67;;
15096;SDS011;7649;52.084;7.478;2023-12-20T01:08:47;8.83;;;3.73;;
15096;SDS011;7649;52.084;7.478;2023-12-20T01:11:15;9.43;;;3.90;;
15096;SDS011;7649;52.084;7.478;2023-12-20T01:13:45;9.40;;;4.07;;
15096;SDS011;7649;52.084;7.478;2023-12-20T01:16:14;8.27;;;4.33;;
15096;SDS011;7649;52.084;7.478;2023-12-20T01:18:42;9.27;;;4.00;;
15096;SDS011;7649;52.084;7.478;2023-12-20T01:21:10;11.67;;;4.60;;
15096;SDS011;7649;52.084;7.478;2023-12-20T01:23:39;11.33;;;4.47;;
15096;SDS011;7649;52.084;7.478;2023-12-20T01:26:08;13.37;;;5.23;;
15096;SDS011;7649;52.084;7.478;2023-12-20T01:28:37;12.07;;;4.90;;
15096;SDS011;7649;52.084;7.478;2023-12-20T01:31:06;11.63;;;4.77;;
15096;SDS011;7649;52.084;7.478;2023-12-20T01:33:35;10.53;;;5.10;;
15096;SDS011;7649;52.084;7.478;2023-12-20T01:36:04;9.13;;;5.30;;
15096;SDS011;7649;52.084;7.478;2023-12-20T01:38:32;11.13;;;4.43;;
15096;SDS011;7649;52.084;7.478;2023-12-20T01:41:01;14.43;;;5.50;;
15096;SDS011;7649;52.084;7.478;2023-12-20T01:43:29;10.53;;;5.50;;
15096;SDS011;7649;52.084;7.478;2023-12-20T01:46:07;11.63;;;5.50;;
15096;SDS011;7649;52.084;7.478;2023-12-20T01:48:36;10.87;;;5.70;;
15096;SDS011;7649;52.084;7.478;2023-12-20T01:51:04;14.70;;;6.07;;
15096;SDS011;7649;52.084;7.478;2023-12-20T01:53:33;14.03;;;6.23;;
15096;SDS011;7649;52.084;7.478;2023-12-20T01:56:02;12.07;;;5.70;;
15096;SDS011;7649;52.084;7.478;2023-12-20T01:58:31;15.57;;;6.07;;
15096;SDS011;7649;52.084;7.478;2023-12-20T02:00:59;10.57;;;6.27;;
15096;SDS011;7649;52.084;7.478;2023-12-20T02:03:29;10.30;;;5.90;;
15096;SDS011;7649;52.084;7.478;2023-12-20T02:05:57;12.67;;;6.00;;
15096;SDS011;7649;52.084;7.478;2023-12-20T02:08:26;15.17;;;6.40;;
15096;SDS011;7649;52.084;7.478;2023-12-20T02:10:54;9.80;;;5.50;;
15096;SDS011;7649;52.084;7.478;2023-12-20T02:13:22;13.50;;;6.27;;
15096;SDS011;7649;52.084;7.478;2023-12-20T02:15:51;14.63;;;5.20;;
15096;SDS011;7649;52.084;7.478;2023-12-20T02:18:20;10.63;;;4.80;;
15096;SDS011;7649;52.084;7.478;2023-12-20T02:20:49;11.97;;;4.40;;
15096;SDS011;7649;52.084;7.478;2023-12-20T02:23:19;14.23;;;4.53;;
15096;SDS011;7649;52.084;7.478;2023-12-20T02:25:48;15.33;;;4.80;;
15096;SDS011;7649;52.084;7.478;2023-12-20T02:28:16;18.80;;;4.53;;
15096;SDS011;7649;52.084;7.478;2023-12-20T02:30:44;10.87;;;4.90;;
15096;SDS011;7649;52.084;7.478;2023-12-20T02:33:13;12.60;;;4.63;;
15096;SDS011;7649;52.084;7.478;2023-12-20T02:35:42;13.80;;;4.50;;
15096;SDS011;7649;52.084;7.478;2023-12-20T02:38:10;14.80;;;4.40;;
15096;SDS011;7649;52.084;7.478;2023-12-20T02:40:40;15.00;;;4.53;;
15096;SDS011;7649;52.084;7.478;2023-12-20T02:43:15;8.43;;;3.70;;
15096;SDS011;7649;52.084;7.478;2023-12-20T02:45:44;12.13;;;4.50;;
15096;SDS011;7649;52.084;7.478;2023-12-20T02:48:12;11.83;;;4.10;;
15096;SDS011;7649;52.084;7.478;2023-12-20T02:50:40;12.20;;;4.00;;
15096;SDS011;7649;52.084;7.478;2023-12-20T02:53:09;15.73;;;4.23;;
15096;SDS011;7649;52.084;7.478;2023-12-20T02:55:37;13.83;;;4.23;;
15096;SDS011;7649;52.084;7.478;2023-12-20T02:58:07;11.00;;;3.70;;
15096;SDS011;7649;52.084;7.478;2023-12-20T03:00:36;15.77;;;3.93;;
15096;SDS011;7649;52.084;7.478;2023-12-20T03:03:04;15.70;;;4.40;;
15096;SDS011;7649;52.084;7.478;2023-12-20T03:05:32;13.77;;;4.20;;
15096;SDS011;7649;52.084;7.478;2023-12-20T03:08:01;18.33;;;4.60;;
15096;SDS011;7649;52.084;7.478;2023-12-20T03:10:29;16.67;;;4.13;;
15096;SDS011;7649;52.084;7.478;2023-12-20T03:12:57;12.00;;;3.97;;
15096;SDS011;7649;52.084;7.478;2023-12-20T03:15:27;15.73;;;3.83;;
15096;SDS011;7649;52.084;7.478;2023-12-20T03:17:56;9.80;;;3.50;;
15096;SDS011;7649;52.084;7.478;2023-12-20T03:20:25;13.27;;;3.73;;
15096;SDS011;7649;52.084;7.478;2023-12-20T03:22:53;10.50;;;3.70;;
15096;SDS011;7649;52.084;7.478;2023-12-20T03:25:22;13.17;;;3.63;;
15096;SDS011;7649;52.084;7.478;2023-12-20T03:27:50;13.40;;;3.93;;
15096;SDS011;7649;52.084;7.478;2023-12-20T03:30:18;15.33;;;4.67;;
15096;SDS011;7649;52.084;7.478;2023-12-20T03:32:48;12.70;;;4.00;;
15096;SDS011;7649;52.084;7.478;2023-12-20T03:35:17;12.40;;;3.17;;
15096;SDS011;7649;52.084;7.478;2023-12-20T03:37:45;16.90;;;4.00;;
15096;SDS011;7649;52.084;7.478;2023-12-20T03:40:13;12.87;;;4.00;;
15096;SDS011;7649;52.084;7.478;2023-12-20T03:42:42;14.43;;;3.70;;
15096;SDS011;7649;52.084;7.478;2023-12-20T03:45:11;15.37;;;4.60;;
15096;SDS011;7649;52.084;7.478;2023-12-20T03:47:39;13.53;;;3.67;;
15096;SDS011;7649;52.084;7.478;2023-12-20T03:50:09;18.07;;;4.77;;
15096;SDS011;7649;52.084;7.478;2023-12-20T03:52:37;14.37;;;4.20;;
15096;SDS011;7649;52.084;7.478;2023-12-20T03:55:06;14.07;;;4.27;;
15096;SDS011;7649;52.084;7.478;2023-12-20T03:57:34;15.53;;;3.83;;
15096;SDS011;7649;52.084;7.478;2023-12-20T04:00:03;13.90;;;3.47;;
15096;SDS011;7649;52.084;7.478;2023-12-20T04:02:31;14.47;;;3.90;;
15096;SDS011;7649;52.084;7.478;2023-12-20T04:05:02;16.83;;;3.80;;
15096;SDS011;7649;52.084;7.478;2023-12-20T04:07:32;13.87;;;3.50;;
15096;SDS011;7649;52.084;7.478;2023-12-20T04:10:01;15.20;;;4.20;;
15096;SDS011;7649;52.084;7.478;2023-12-20T04:12:30;17.97;;;4.60;;
15096;SDS011;7649;52.084;7.478;2023-12-20T04:14:58;14.87;;;3.70;;
15096;SDS011;7649;52.084;7.478;2023-12-20T04:17:27;15.80;;;3.83;;
15096;SDS011;7649;52.084;7.478;2023-12-20T04:19:55;15.93;;;4.00;;
15096;SDS011;7649;52.084;7.478;2023-12-20T04:22:24;15.73;;;3.97;;
15096;SDS011;7649;52.084;7.478;2023-12-20T04:24:54;15.70;;;3.90;;
15096;SDS011;7649;52.084;7.478;2023-12-20T04:27:22;16.00;;;3.90;;
15096;SDS011;7649;52.084;7.478;2023-12-20T04:29:50;17.53;;;3.77;;
15096;SDS011;7649;52.084;7.478;2023-12-20T04:32:19;15.40;;;4.03;;
15096;SDS011;7649;52.084;7.478;2023-12-20T04:34:47;14.77;;;4.90;;
15096;SDS011;7649;52.084;7.478;2023-12-20T04:37:15;19.40;;;4.60;;
15096;SDS011;7649;52.084;7.478;2023-12-20T04:39:44;15.57;;;5.07;;
15096;SDS011;7649;52.084;7.478;2023-12-20T04:42:13;13.43;;;4.43;;
15096;SDS011;7649;52.084;7.478;2023-12-20T04:44:42;17.37;;;4.93;;
15096;SDS011;7649;52.084;7.478;2023-12-20T04:47:11;16.57;;;4.77;;
15096;SDS011;7649;52.084;7.478;2023-12-20T04:49:39;15.27;;;4.53;;
15096;SDS011;7649;52.084;7.478;2023-12-20T04:52:07;21.90;;;5.20;;
15096;SDS011;7649;52.084;7.478;2023-12-20T04:54:36;17.97;;;5.20;;
15096;SDS011;7649;52.084;7.478;2023-12-20T04:57:07;18.30;;;4.57;;
15096;SDS011;7649;52.084;7.478;2023-12-20T04:59:39;17.10;;;5.37;;
15096;SDS011;7649;52.084;7.478;2023-12-20T05:02:08;18.87;;;5.27;;
15096;SDS011;7649;52.084;7.478;2023-12-20T05:04:38;14.87;;;4.40;;
15096;SDS011;7649;52.084;7.478;2023-12-20T05:07:06;14.50;;;4.93;;
15096;SDS011;7649;52.084;7.478;2023-12-20T05:09:34;16.57;;;4.53;;
15096;SDS011;7649;52.084;7.478;2023-12-20T05:12:03;20.97;;;5.40;;
15096;SDS011;7649;52.084;7.478;2023-12-20T05:14:31;17.23;;;5.33;;
15096;SDS011;7649;52.084;7.478;2023-12-20T05:17:01;21.30;;;5.73;;
15096;SDS011;7649;52.084;7.478;2023-12-20T05:19:29;15.47;;;5.57;;
15096;SDS011;7649;52.084;7.478;2023-12-20T05:22:01;17.93;;;5.27;;
15096;SDS011;7649;52.084;7.478;2023-12-20T05:24:30;13.00;;;4.47;;
15096;SDS011;7649;52.084;7.478;2023-12-20T05:26:58;13.73;;;4.63;;
15096;SDS011;7649;52.084;7.478;2023-12-20T05:29:26;14.77;;;4.57;;
15096;SDS011;7649;52.084;7.478;2023-12-20T05:31:55;19.10;;;5.10;;
15096;SDS011;7649;52.084;7.478;2023-12-20T05:34:24;15.23;;;4.90;;
15096;SDS011;7649;52.084;7.478;2023-12-20T05:36:53;15.50;;;5.03;;
15096;SDS011;7649;52.084;7.478;2023-12-20T05:39:23;16.70;;;6.03;;
15096;SDS011;7649;52.084;7.478;2023-12-20T05:41:52;15.70;;;5.30;;
15096;SDS011;7649;52.084;7.478;2023-12-20T05:44:20;11.93;;;4.53;;
15096;SDS011;7649;52.084;7.478;2023-12-20T05:46:49;19.37;;;5.33;;
15096;SDS011;7649;52.084;7.478;2023-12-20T05:49:17;19.87;;;5.27;;
15096;SDS011;7649;52.084;7.478;2023-12-20T05:51:47;17.70;;;6.20;;
15096;SDS011;7649;52.084;7.478;2023-12-20T05:54:16;22.57;;;5.30;;
15096;SDS011;7649;52.084;7.478;2023-12-20T05:56:44;18.07;;;5.93;;
15096;SDS011;7649;52.084;7.478;2023-12-20T05:59:13;14.90;;;5.23;;
15096;SDS011;7649;52.084;7.478;2023-12-20T06:01:41;16.77;;;5.50;;
15096;SDS011;7649;52.084;7.478;2023-12-20T06:04:10;21.20;;;5.80;;
15096;SDS011;7649;52.084;7.478;2023-12-20T06:06:40;19.67;;;5.70;;
15096;SDS011;7649;52.084;7.478;2023-12-20T06:09:11;20.17;;;5.83;;
15096;SDS011;7649;52.084;7.478;2023-12-20T06:11:47;18.30;;;5.37;;
15096;SDS011;7649;52.084;7.478;2023-12-20T06:14:16;15.37;;;4.77;;
15096;SDS011;7649;52.084;7.478;2023-12-20T06:16:44;21.83;;;5.03;;
15096;SDS011;7649;52.084;7.478;2023-12-20T06:19:13;18.67;;;5.40;;
15096;SDS011;7649;52.084;7.478;2023-12-20T06:21:42;19.20;;;5.53;;
15096;SDS011;7649;52.084;7.478;2023-12-20T06:24:12;22.50;;;5.60;;
15096;SDS011;7649;52.084;7.478;2023-12-20T06:26:40;13.53;;;4.57;;
15096;SDS011;7649;52.084;7.478;2023-12-20T06:29:09;21.07;;;4.63;;
15096;SDS011;7649;52.084;7.478;2023-12-20T06:31:37;17.47;;;5.33;;
15096;SDS011;7649;52.084;7.478;2023-12-20T06:34:05;15.83;;;4.90;;
15096;SDS011;7649;52.084;7.478;2023-12-20T06:36:34;17.43;;;4.73;;
15096;SDS011;7649;52.084;7.478;2023-12-20T06:39:03;18.13;;;4.80;;
15096;SDS011;7649;52.084;7.478;2023-12-20T06:41:33;13.43;;;4.20;;
15096;SDS011;7649;52.084;7.478;2023-12-20T06:44:01;12.93;;;4.17;;
15096;SDS011;7649;52.084;7.478;2023-12-20T06:46:29;22.23;;;5.17;;
15096;SDS011;7649;52.084;7.478;2023-12-20T06:49:00;19.50;;;4.60;;
15096;SDS011;7649;52.084;7.478;2023-12-20T06:51:29;17.20;;;5.00;;
15096;SDS011;7649;52.084;7.478;2023-12-20T06:53:57;15.73;;;4.93;;
15096;SDS011;7649;52.084;7.478;2023-12-20T06:56:26;15.87;;;5.07;;
15096;SDS011;7649;52.084;7.478;2023-12-20T06:58:56;17.77;;;4.43;;
15096;SDS011;7649;52.084;7.478;2023-12-20T07:01:24;12.47;;;3.77;;
15096;SDS011;7649;52.084;7.478;2023-12-20T07:03:53;15.37;;;4.50;;
15096;SDS011;7649;52.084;7.478;2023-12-20T07:06:22;19.97;;;4.57;;
15096;SDS011;7649;52.084;7.478;2023-12-20T07:08:52;13.77;;;4.13;;
15096;SDS011;7649;52.084;7.478;2023-12-20T07:11:20;14.83;;;3.93;;
15096;SDS011;7649;52.084;7.478;2023-12-20T07:13:49;16.13;;;4.87;;
15096;SDS011;7649;52.084;7.478;2023-12-20T07:16:19;20.97;;;5.57;;
15096;SDS011;7649;52.084;7.478;2023-12-20T07:18:47;16.37;;;4.60;;
15096;SDS011;7649;52.084;7.478;2023-12-20T07:21:15;20.60;;;4.63;;
15096;SDS011;7649;52.084;7.478;2023-12-20T07:23:44;14.90;;;4.53;;
15096;SDS011;7649;52.084;7.478;2023-12-20T07:26:12;18.27;;;4.80;;
15096;SDS011;7649;52.084;7.478;2023-12-20T07:28:41;14.30;;;4.23;;
15096;SDS011;7649;52.084;7.478;2023-12-20T07:31:09;16.60;;;4.67;;
15096;SDS011;7649;52.084;7.478;2023-12-20T07:33:39;12.37;;;4.27;;
15096;SDS011;7649;52.084;7.478;2023-12-20T07:36:08;18.20;;;4.33;;
15096;SDS011;7649;52.084;7.478;2023-12-20T07:38:36;19.90;;;4.93;;
15096;SDS011;7649;52.084;7.478;2023-12-20T07:41:05;15.60;;;4.40;;
15096;SDS011;7649;52.084;7.478;2023-12-20T07:43:33;16.30;;;4.80;;
15096;SDS011;7649;52.084;7.478;2023-12-20T07:46:03;13.87;;;4.50;;
15096;SDS011;7649;52.084;7.478;2023-12-20T07:48:33;18.83;;;5.00;;
15096;SDS011;7649;52.084;7.478;2023-12-20T07:51:03;15.70;;;4.77;;
15096;SDS011;7649;52.084;7.478;2023-12-20T07:53:32;10.83;;;4.20;;
15096;SDS011;7649;52.084;7.478;2023-12-20T07:56:01;19.70;;;5.10;;
15096;SDS011;7649;52.084;7.478;2023-12-20T07:58:30;15.43;;;5.17;;
15096;SDS011;7649;52.084;7.478;2023-12-20T08:01:16;19.57;;;4.83;;
15096;SDS011;7649;52.084;7.478;2023-12-20T08:03:45;19.80;;;4.80;;
15096;SDS011;7649;52.084;7.478;2023-12-20T08:06:15;20.83;;;5.53;;
15096;SDS011;7649;52.084;7.478;2023-12-20T08:08:45;17.20;;;5.10;;
15096;SDS011;7649;52.084;7.478;2023-12-20T08:11:24;18.63;;;4.77;;
15096;SDS011;7649;52.084;7.478;2023-12-20T08:13:52;21.03;;;4.77;;
15096;SDS011;7649;52.084;7.478;2023-12-20T08:16:20;20.00;;;5.60;;
15096;SDS011;7649;52.084;7.478;2023-12-20T08:18:50;20.63;;;5.60;;
15096;SDS011;7649;52.084;7.478;2023-12-20T08:21:20;16.67;;;5.20;;
15096;SDS011;7649;52.084;7.478;2023-12-20T08:23:49;14.13;;;4.50;;
15096;SDS011;7649;52.084;7.478;2023-12-20T08:26:18;19.50;;;5.83;;
15096;SDS011;7649;52.084;7.478;2023-12-20T08:28:48;18.13;;;5.17;;
15096;SDS011;7649;52.084;7.478;2023-12-20T08:31:17;16.20;;;5.37;;
15096;SDS011;7649;52.084;7.478;2023-12-20T08:33:47;18.43;;;5.30;;
15096;SDS011;7649;52.084;7.478;2023-12-20T08:36:21;16.93;;;6.40;;
15096;SDS011;7649;52.084;7.478;2023-12-20T08:38:50;19.67;;;6.07;;
15096;SDS011;7649;52.084;7.478;2023-12-20T08:41:18;19.43;;;5.97;;
15096;SDS011;7649;52.084;7.478;2023-12-20T08:43:47;22.47;;;6.40;;
15096;SDS011;7649;52.084;7.478;2023-12-20T08:46:15;17.83;;;6.10;;
15096;SDS011;7649;52.084;7.478;2023-12-20T08:48:44;22.30;;;6.23;;
15096;SDS011;7649;52.084;7.478;2023-12-20T08:51:13;19.60;;;5.83;;
15096;SDS011;7649;52.084;7.478;2023-12-20T08:53:43;19.13;;;5.93;;
15096;SDS011;7649;52.084;7.478;2023-12-20T08:56:13;18.00;;;6.10;;
15096;SDS011;7649;52.084;7.478;2023-12-20T08:58:43;20.43;;;6.67;;
15096;SDS011;7649;52.084;7.478;2023-12-20T09:01:11;20.20;;;6.00;;
15096;SDS011;7649;52.084;7.478;2023-12-20T09:03:40;17.63;;;5.87;;
15096;SDS011;7649;52.084;7.478;2023-12-20T09:06:08;15.70;;;5.77;;
15096;SDS011;7649;52.084;7.478;2023-12-20T09:08:37;15.67;;;5.80;;
15096;SDS011;7649;52.084;7.478;2023-12-20T09:11:07;15.40;;;5.20;;
15096;SDS011;7649;52.084;7.478;2023-12-20T09:13:36;20.20;;;6.10;;
15096;SDS011;7649;52.084;7.478;2023-12-20T09:16:05;19.87;;;5.40;;
15096;SDS011;7649;52.084;7.478;2023-12-20T09:18:34;18.13;;;5.47;;
15096;SDS011;7649;52.084;7.478;2023-12-20T09:21:04;16.47;;;5.97;;
15096;SDS011;7649;52.084;7.478;2023-12-20T09:23:33;16.40;;;6.00;;
15096;SDS011;7649;52.084;7.478;2023-12-20T09:26:03;17.27;;;5.43;;
15096;SDS011;7649;52.084;7.478;2023-12-20T09:28:33;17.63;;;5.57;;
15096;SDS011;7649;52.084;7.478;2023-12-20T09:31:04;24.97;;;6.20;;
15096;SDS011;7649;52.084;7.478;2023-12-20T09:33:33;18.33;;;6.03;;
15096;SDS011;7649;52.084;7.478;2023-12-20T09:36:02;17.93;;;5.47;;
15096;SDS011;7649;52.084;7.478;2023-12-20T09:38:30;17.73;;;5.43;;
15096;SDS011;7649;52.084;7.478;2023-12-20T09:40:59;17.10;;;5.03;;
15096;SDS011;7649;52.084;7.478;2023-12-20T09:43:28;17.67;;;5.47;;
15096;SDS011;7649;52.084;7.478;2023-12-20T09:45:59;15.87;;;5.87;;
15096;SDS011;7649;52.084;7.478;2023-12-20T09:48:29;18.50;;;6.10;;
15096;SDS011;7649;52.084;7.478;2023-12-20T09:50:58;20.90;;;5.73;;
15096;SDS011;7649;52.084;7.478;2023-12-20T09:53:27;15.57;;;5.53;;
15096;SDS011;7649;52.084;7.478;2023-12-20T09:55:57;18.03;;;5.50;;
15096;SDS011;7649;52.084;7.478;2023-12-20T09:58:27;16.20;;;5.23;;
15096;SDS011;7649;52.084;7.478;2023-12-20T10:00:59;20.23;;;5.13;;
15096;SDS011;7649;52.084;7.478;2023-12-20T10:03:28;19.20;;;4.90;;
15096;SDS011;7649;52.084;7.478;2023-12-20T10:05:56;15.50;;;4.97;;
15096;SDS011;7649;52.084;7.478;2023-12-20T10:08:26;15.80;;;5.40;;
15096;SDS011;7649;52.084;7.478;2023-12-20T10:10:56;16.57;;;4.87;;
15096;SDS011;7649;52.084;7.478;2023-12-20T10:13:29;18.53;;;5.40;;
15096;SDS011;7649;52.084;7.478;2023-12-20T10:15:59;13.20;;;4.83;;
15096;SDS011;7649;52.084;7.478;2023-12-20T10:18:28;13.37;;;4.83;;
15096;SDS011;7649;52.084;7.478;2023-12-20T10:21:05;13.67;;;4.50;;
15096;SDS011;7649;52.084;7.478;2023-12-20T10:23:34;12.97;;;4.30;;
15096;SDS011;7649;52.084;7.478;2023-12-20T10:26:03;13.43;;;4.47;;
15096;SDS011;7649;52.084;7.478;2023-12-20T10:28:33;15.50;;;4.90;;
15096;SDS011;7649;52.084;7.478;2023-12-20T10:31:03;11.30;;;4.03;;
15096;SDS011;7649;52.084;7.478;2023-12-20T10:33:31;13.10;;;4.70;;
15096;SDS011;7649;52.084;7.478;2023-12-20T10:36:01;12.60;;;3.83;;
15096;SDS011;7649;52.084;7.478;2023-12-20T10:38:30;15.03;;;4.20;;
15096;SDS011;7649;52.084;7.478;2023-12-20T10:40:58;10.57;;;3.70;;
15096;SDS011;7649;52.084;7.478;2023-12-20T10:43:27;11.17;;;4.07;;
15096;SDS011;7649;52.084;7.478;2023-12-20T10:45:57;10.57;;;4.03;;
15096;SDS011;7649;52.084;7.478;2023-12-20T10:48:29;13.63;;;4.33;;
15096;SDS011;7649;52.084;7.478;2023-12-20T10:50:59;12.90;;;5.00;;
15096;SDS011;7649;52.084;7.478;2023-12-20T10:53:28;11.53;;;4.20;;
15096;SDS011;7649;52.084;7.478;2023-12-20T10:55:58;14.10;;;4.73;;
15096;SDS011;7649;52.084;7.478;2023-12-20T10:58:28;12.63;;;4.17;;
15096;SDS011;7649;52.084;7.478;2023-12-20T11:00:59;13.30;;;3.73;;
15096;SDS011;7649;52.084;7.478;2023-12-20T11:03:31;11.53;;;3.67;;
15096;SDS011;7649;52.084;7.478;2023-12-20T11:06:02;9.30;;;3.57;;
15096;SDS011;7649;52.084;7.478;2023-12-20T11:08:32;8.97;;;3.60;;
15096;SDS011;7649;52.084;7.478;2023-12-20T11:11:03;7.67;;;3.83;;
15096;SDS011;7649;52.084;7.478;2023-12-20T11:13:34;11.03;;;3.77;;
15096;SDS011;7649;52.084;7.478;2023-12-20T11:16:04;12.67;;;3.80;;
15096;SDS011;7649;52.084;7.478;2023-12-20T11:18:38;10.30;;;3.50;;
15096;SDS011;7649;52.084;7.478;2023-12-20T11:21:10;10.90;;;3.60;;
15096;SDS011;7649;52.084;7.478;2023-12-20T11:23:46;13.97;;;4.33;;
15096;SDS011;7649;52.084;7.478;2023-12-20T11:26:15;11.17;;;3.63;;
15096;SDS011;7649;52.084;7.478;2023-12-20T11:28:44;9.87;;;3.87;;
15096;SDS011;7649;52.084;7.478;2023-12-20T11:31:13;9.60;;;3.47;;
15096;SDS011;7649;52.084;7.478;2023-12-20T11:33:44;11.27;;;4.13;;
15096;SDS011;7649;52.084;7.478;2023-12-20T11:36:15;11.77;;;3.60;;
15096;SDS011;7649;52.084;7.478;2023-12-20T11:38:54;11.67;;;4.00;;
15096;SDS011;7649;52.084;7.478;2023-12-20T11:41:24;12.60;;;3.67;;
15096;SDS011;7649;52.084;7.478;2023-12-20T11:43:53;12.97;;;4.07;;
15096;SDS011;7649;52.084;7.478;2023-12-20T11:46:22;12.20;;;4.10;;
15096;SDS011;7649;52.084;7.478;2023-12-20T11:48:52;15.57;;;4.93;;
15096;SDS011;7649;52.084;7.478;2023-12-20T11:51:21;10.90;;;4.13;;
15096;SDS011;7649;52.084;7.478;2023-12-20T11:53:53;14.13;;;4.27;;
15096;SDS011;7649;52.084;7.478;2023-12-20T11:56:21;12.43;;;4.40;;
15096;SDS011;7649;52.084;7.478;2023-12-20T11:58:50;13.00;;;3.73;;
15096;SDS011;7649;52.084;7.478;2023-12-20T12:01:19;14.93;;;4.30;;
15096;SDS011;7649;52.084;7.478;2023-12-20T12:03:48;15.40;;;4.37;;
15096;SDS011;7649;52.084;7.478;2023-12-20T12:06:18;12.57;;;4.17;;
15096;SDS011;7649;52.084;7.478;2023-12-20T12:08:46;14.43;;;4.57;;
15096;SDS011;7649;52.084;7.478;2023-12-20T12:11:14;13.13;;;4.63;;
15096;SDS011;7649;52.084;7.478;2023-12-20T12:13:43;15.53;;;4.73;;
15096;SDS011;7649;52.084;7.478;2023-12-20T12:16:12;15.07;;;4.77;;
15096;SDS011;7649;52.084;7.478;2023-12-20T12:18:40;10.80;;;3.97;;
15096;SDS011;7649;52.084;7.478;2023-12-20T12:21:09;14.43;;;4.27;;
15096;SDS011;7649;52.084;7.478;2023-12-20T12:23:45;8.63;;;3.83;;
15096;SDS011;7649;52.084;7.478;2023-12-20T12:26:14;12.57;;;4.30;;
15096;SDS011;7649;52.084;7.478;2023-12-20T12:28:42;14.57;;;4.30;;
15096;SDS011;7649;52.084;7.478;2023-12-20T12:31:13;13.83;;;4.30;;
15096;SDS011;7649;52.084;7.478;2023-12-20T12:33:43;13.33;;;4.70;;
15096;SDS011;7649;52.084;7.478;2023-12-20T12:36:12;14.20;;;4.43;;
15096;SDS011;7649;52.084;7.478;2023-12-20T12:38:42;14.97;;;4.23;;
15096;SDS011;7649;52.084;7.478;2023-12-20T12:41:13;12.37;;;3.50;;
15096;SDS011;7649;52.084;7.478;2023-12-20T12:43:42;17.13;;;4.13;;
15096;SDS011;7649;52.084;7.478;2023-12-20T12:46:11;11.33;;;3.83;;
15096;SDS011;7649;52.084;7.478;2023-12-20T12:48:40;8.00;;;2.83;;
15096;SDS011;7649;52.084;7.478;2023-12-20T12:51:12;3.67;;;1.60;;
15096;SDS011;7649;52.084;7.478;2023-12-20T12:53:40;4.50;;;2.07;;
15096;SDS011;7649;52.084;7.478;2023-12-20T12:56:11;3.53;;;1.80;;
15096;SDS011;7649;52.084;7.478;2023-12-20T12:58:42;4.23;;;1.80;;
15096;SDS011;7649;52.084;7.478;2023-12-20T13:01:10;6.07;;;1.93;;
15096;SDS011;7649;52.084;7.478;2023-12-20T13:03:39;4.00;;;1.73;;
15096;SDS011;7649;52.084;7.478;2023-12-20T13:06:07;8.83;;;2.97;;
15096;SDS011;7649;52.084;7.478;2023-12-20T13:08:36;8.53;;;2.23;;
15096;SDS011;7649;52.084;7.478;2023-12-20T13:11:04;4.53;;;2.03;;
15096;SDS011;7649;52.084;7.478;2023-12-20T13:13:33;3.50;;;1.67;;
15096;SDS011;7649;52.084;7.478;2023-12-20T13:16:03;4.93;;;2.30;;
15096;SDS011;7649;52.084;7.478;2023-12-20T13:18:31;5.80;;;1.97;;
15096;SDS011;7649;52.084;7.478;2023-12-20T13:21:00;4.33;;;2.30;;
15096;SDS011;7649;52.084;7.478;2023-12-20T13:23:28;9.03;;;3.97;;
15096;SDS011;7649;52.084;7.478;2023-12-20T13:25:57;6.03;;;2.40;;
15096;SDS011;7649;52.084;7.478;2023-12-20T13:28:25;5.83;;;2.43;;
15096;SDS011;7649;52.084;7.478;2023-12-20T13:30:54;7.03;;;2.97;;
15096;SDS011;7649;52.084;7.478;2023-12-20T13:33:24;6.23;;;2.67;;
15096;SDS011;7649;52.084;7.478;2023-12-20T13:35:52;5.40;;;2.20;;
15096;SDS011;7649;52.084;7.478;2023-12-20T13:38:20;8.90;;;3.30;;
15096;SDS011;7649;52.084;7.478;2023-12-20T13:40:49;6.50;;;3.00;;
15096;SDS011;7649;52.084;7.478;2023-12-20T13:43:17;7.30;;;3.20;;
15096;SDS011;7649;52.084;7.478;2023-12-20T13:45:48;8.73;;;3.03;;
15096;SDS011;7649;52.084;7.478;2023-12-20T13:48:18;6.37;;;2.83;;
15096;SDS011;7649;52.084;7.478;2023-12-20T13:50:48;6.50;;;3.43;;
15096;SDS011;7649;52.084;7.478;2023-12-20T13:53:16;5.13;;;2.80;;
15096;SDS011;7649;52.084;7.478;2023-12-20T13:55:45;7.83;;;2.93;;
15096;SDS011;7649;52.084;7.478;2023-12-20T13:58:13;4.50;;;2.60;;
15096;SDS011;7649;52.084;7.478;2023-12-20T14:00:42;7.60;;;3.70;;
15096;SDS011;7649;52.084;7.478;2023-12-20T14:03:10;8.27;;;3.00;;
15096;SDS011;7649;52.084;7.478;2023-12-20T14:05:39;8.30;;;3.27;;
15096;SDS011;7649;52.084;7.478;2023-12-20T14:08:09;5.67;;;3.00;;
15096;SDS011;7649;52.084;7.478;2023-12-20T14:10:37;5.43;;;2.27;;
15096;SDS011;7649;52.084;7.478;2023-12-20T14:13:06;5.23;;;2.57;;
15096;SDS011;7649;52.084;7.478;2023-12-20T14:15:35;5.87;;;2.70;;
15096;SDS011;7649;52.084;7.478;2023-12-20T14:18:04;5.10;;;3.17;;
15096;SDS011;7649;52.084;7.478;2023-12-20T14:20:34;7.80;;;2.80;;
15096;SDS011;7649;52.084;7.478;2023-12-20T14:23:05;10.73;;;3.33;;
15096;SDS011;7649;52.084;7.478;2023-12-20T14:25:35;9.27;;;3.27;;
15096;SDS011;7649;52.084;7.478;2023-12-20T14:28:17;12.93;;;3.83;;
15096;SDS011;7649;52.084;7.478;2023-12-20T14:30:45;10.20;;;3.97;;
15096;SDS011;7649;52.084;7.478;2023-12-20T14:33:15;13.53;;;4.13;;
15096;SDS011;7649;52.084;7.478;2023-12-20T14:35:47;12.37;;;4.73;;
15096;SDS011;7649;52.084;7.478;2023-12-20T14:38:15;14.43;;;5.17;;
15096;SDS011;7649;52.084;7.478;2023-12-20T14:40:45;13.03;;;4.87;;
15096;SDS011;7649;52.084;7.478;2023-12-20T14:43:13;14.10;;;4.53;;
15096;SDS011;7649;52.084;7.478;2023-12-20T14:45:45;17.80;;;4.50;;
15096;SDS011;7649;52.084;7.478;2023-12-20T14:48:14;16.30;;;5.10;;
15096;SDS011;7649;52.084;7.478;2023-12-20T14:50:43;14.80;;;4.70;;
15096;SDS011;7649;52.084;7.478;2023-12-20T14:53:14;15.57;;;4.80;;
15096;SDS011;7649;52.084;7.478;2023-12-20T14:55:47;17.67;;;4.87;;
15096;SDS011;7649;52.084;7.478;2023-12-20T14:58:17;20.40;;;5.33;;
15096;SDS011;7649;52.084;7.478;2023-12-20T15:00:46;12.00;;;4.97;;
15096;SDS011;7649;52.084;7.478;2023-12-20T15:03:15;16.87;;;5.40;;